createdAt,value
2023-03-13T00:03:29.687Z,3.2
2023-03-13T00:08:28.772Z,3.3
2023-03-13T00:13:27.801Z,4
2023-03-13T00:18:26.916Z,3.7
2023-03-13T00:23:26.015Z,4.2
2023-03-13T00:28:25.049Z,3.4
2023-03-13T00:33:24.156Z,4.6
2023-03-13T00:38:23.218Z,4.7
2023-03-13T00:43:22.308Z,4
2023-03-13T00:48:21.378Z,3.9
2023-03-13T00:53:20.409Z,4.9
2023-03-13T00:58:19.478Z,3.7
2023-03-13T01:03:18.828Z,4.6
2023-03-13T01:08:17.714Z,3.6
2023-03-13T01:13:16.870Z,4.1
2023-03-13T01:18:15.964Z,4
2023-03-13T01:23:15.066Z,3
2023-03-13T01:28:14.181Z,2.9
2023-03-13T01:33:13.255Z,4.4
2023-03-13T01:38:12.372Z,3.6
2023-03-13T01:43:14.538Z,3.9
2023-03-13T01:48:10.594Z,3.2
2023-03-13T01:53:09.745Z,2.3
2023-03-13T01:58:08.886Z,3.4
2023-03-13T02:03:08.166Z,2.7
2023-03-13T02:08:07.129Z,3.2
2023-03-13T02:13:06.255Z,3.1
2023-03-13T02:18:05.449Z,3
2023-03-13T02:23:04.467Z,2.5
2023-03-13T02:28:03.666Z,3.7
2023-03-13T02:33:02.847Z,2.2
2023-03-13T02:38:01.899Z,2.8
2023-03-13T02:43:01.093Z,3.1
2023-03-13T02:48:00.186Z,3.4
2023-03-13T02:52:59.318Z,3.3
2023-03-13T02:57:58.429Z,2.7
2023-03-13T03:02:57.568Z,4.7
2023-03-13T03:07:56.683Z,3.6
2023-03-13T03:12:55.829Z,3.6
2023-03-13T03:17:54.894Z,4
2023-03-13T03:22:53.973Z,4.4
2023-03-13T03:27:53.138Z,3.4
2023-03-13T03:32:52.278Z,2.4
2023-03-13T03:37:51.331Z,3.2
2023-03-13T03:42:50.448Z,2.8
2023-03-13T03:47:49.562Z,3.8
2023-03-13T03:52:48.701Z,3.4
2023-03-13T03:57:47.783Z,2.9
2023-03-13T04:02:46.864Z,2.9
2023-03-13T04:07:46.035Z,3.3
2023-03-13T04:12:45.137Z,3.5
2023-03-13T04:17:44.189Z,2.5
2023-03-13T04:22:43.325Z,3.6
2023-03-13T04:27:42.445Z,4.5
2023-03-13T04:32:41.711Z,2.5
2023-03-13T04:37:40.744Z,2.7
2023-03-13T04:42:39.902Z,2.8
2023-03-13T04:47:38.873Z,2.6
2023-03-13T04:52:38.008Z,2.5
2023-03-13T04:57:37.088Z,3.3
2023-03-13T05:02:36.186Z,3.3
2023-03-13T05:07:35.252Z,4.1
2023-03-13T05:12:34.451Z,3.3
2023-03-13T05:17:33.446Z,3.3
2023-03-13T05:22:32.531Z,2.2
2023-03-13T05:27:31.634Z,3.8
2023-03-13T05:32:30.812Z,4
2023-03-13T05:37:29.824Z,4.3
2023-03-13T05:42:28.925Z,4.1
2023-03-13T05:47:28.012Z,6.9
2023-03-13T05:52:27.127Z,8.8
2023-03-13T05:57:26.208Z,8.7
2023-03-13T06:02:25.371Z,8.3
2023-03-13T06:07:24.453Z,7.3
2023-03-13T06:12:23.543Z,6.3
2023-03-13T06:17:22.692Z,10.9
2023-03-13T06:22:21.837Z,11.6
2023-03-13T06:27:20.966Z,9.5
2023-03-13T06:32:20.295Z,8
2023-03-13T06:37:19.246Z,7.3
2023-03-13T06:42:18.428Z,4.2
2023-03-13T06:47:17.632Z,4
2023-03-13T06:52:18.393Z,4.6
2023-03-13T06:57:15.988Z,5.6
2023-03-13T07:02:15.125Z,7.7
2023-03-13T07:07:25.616Z,3.6
2023-03-13T07:12:13.497Z,7.3
2023-03-13T07:17:12.736Z,5.3
2023-03-13T07:22:11.922Z,3.7
2023-03-13T07:27:11.191Z,3.6
2023-03-13T07:32:10.464Z,4
2023-03-13T07:37:09.566Z,3.9
2023-03-13T07:42:08.793Z,4.6
2023-03-13T07:47:08.021Z,4.6
2023-03-13T07:52:07.289Z,4
2023-03-13T07:57:06.877Z,4.1
2023-03-13T08:02:05.847Z,3.1
2023-03-13T08:07:05.435Z,3.5
2023-03-13T08:12:05.375Z,3.1
2023-03-13T08:17:03.645Z,2.7
2023-03-13T08:22:02.846Z,3
2023-03-13T08:27:02.110Z,2.4
2023-03-13T08:32:01.360Z,3
2023-03-13T08:37:00.660Z,3.4
2023-03-13T08:41:59.918Z,3
2023-03-13T08:46:59.263Z,2.9
2023-03-13T08:51:58.550Z,3.3
2023-03-13T08:56:57.794Z,2.5
2023-03-13T10:56:42.250Z,2.8
2023-03-13T11:01:41.669Z,3.1
2023-03-13T11:06:41.062Z,2.9
2023-03-13T11:11:40.466Z,2.7
2023-03-13T11:16:39.890Z,3.5
2023-03-13T11:21:39.238Z,3.1
2023-03-13T11:26:38.763Z,3
2023-03-13T11:31:38.124Z,2.5
2023-03-13T11:36:37.489Z,2.6
2023-03-13T11:41:36.962Z,3.3
2023-03-13T11:46:36.565Z,2.9
2023-03-13T11:51:35.843Z,2.9
2023-03-13T11:56:35.202Z,4
2023-03-13T12:01:34.654Z,4
2023-03-13T12:06:34.137Z,4
2023-03-13T12:11:33.537Z,3.6
2023-03-13T12:16:32.984Z,4
2023-03-13T12:21:32.499Z,3
2023-03-13T12:26:31.827Z,5
2023-03-13T12:31:31.305Z,5.5
2023-03-13T12:36:30.786Z,3.9
2023-03-13T12:41:30.197Z,3.8
2023-03-13T12:46:29.749Z,3.2
2023-03-13T12:51:29.192Z,3.4
2023-03-13T12:56:28.620Z,3.3
2023-03-13T13:01:28.173Z,3.9
2023-03-13T13:06:27.569Z,3.5
2023-03-13T13:11:27.069Z,4.5
2023-03-13T13:16:26.596Z,3.6
2023-03-13T13:21:25.980Z,2.8
2023-03-13T13:26:25.459Z,3.2
2023-03-13T13:31:24.993Z,2.9
2023-03-13T13:36:24.461Z,2.8
2023-03-13T13:41:23.933Z,2.6
2023-03-13T13:46:23.445Z,2.8
2023-03-13T13:51:22.882Z,4
2023-03-13T13:56:22.524Z,3.2
2023-03-13T14:01:21.897Z,3.3
2023-03-13T14:06:21.315Z,3
2023-03-13T14:11:20.811Z,3.2
2023-03-13T14:16:22.411Z,3.4
2023-03-13T14:21:19.723Z,2.5
2023-03-13T14:26:19.226Z,3.4
2023-03-13T14:31:18.805Z,3.4
2023-03-13T14:36:18.227Z,3.8
2023-03-13T14:41:17.693Z,4
2023-03-13T14:46:17.219Z,3.3
2023-03-13T14:51:17.322Z,2.9
2023-03-13T14:56:16.101Z,3.6
2023-03-13T15:01:15.662Z,3.5
2023-03-13T15:06:15.059Z,2.8
2023-03-13T15:11:14.577Z,4.1
2023-03-13T15:16:14.112Z,2.9
2023-03-13T15:21:13.520Z,3.6
2023-03-13T15:26:12.931Z,2.9
2023-03-13T15:31:12.432Z,8.5
2023-03-13T15:36:12.032Z,11.3
2023-03-13T15:41:11.392Z,9.1
2023-03-13T15:46:11.054Z,13.9
2023-03-13T15:51:10.390Z,9.5
2023-03-13T16:01:09.315Z,5.7
2023-03-13T16:06:08.766Z,31.4
2023-03-13T16:11:08.264Z,12.9
2023-03-13T16:16:07.722Z,6.5
2023-03-13T16:21:07.191Z,6.3
2023-03-13T16:26:06.624Z,4.6
2023-03-13T16:31:06.134Z,5.4
2023-03-13T16:36:05.514Z,17.7
2023-03-13T16:41:04.930Z,5.6
2023-03-13T16:46:04.444Z,5.5
2023-03-13T16:51:06.361Z,7.3
2023-03-13T16:56:03.221Z,8.2
2023-03-13T17:01:05.756Z,11.6
2023-03-13T17:06:02.017Z,9
2023-03-13T17:11:01.439Z,8.7
2023-03-13T17:16:00.882Z,12.9
2023-03-13T17:21:00.197Z,9.6
2023-03-13T17:25:59.543Z,7.6
2023-03-13T17:30:58.921Z,5.2
2023-03-13T17:35:58.304Z,7
2023-03-13T17:40:57.622Z,8.5
2023-03-13T17:45:56.964Z,6.9
2023-03-13T17:50:56.323Z,6.9
2023-03-13T17:55:55.678Z,8.1
2023-03-13T18:00:54.968Z,6.1
2023-03-13T18:05:54.371Z,7.6
2023-03-13T18:10:53.710Z,6.2
2023-03-13T18:16:00.230Z,5.7
2023-03-13T18:20:52.457Z,8.7
2023-03-13T18:25:51.867Z,8
2023-03-13T18:30:51.205Z,5.9
2023-03-13T18:35:50.625Z,7.7
2023-03-13T18:40:49.901Z,6.4
2023-03-13T18:45:49.356Z,19.7
2023-03-13T18:50:48.608Z,12.6
2023-03-13T18:55:47.933Z,9.3
2023-03-13T19:00:48.355Z,7.7
2023-03-13T19:05:46.469Z,8.3
2023-03-13T19:10:45.941Z,6.9
2023-03-13T19:15:45.116Z,8.2
2023-03-13T19:20:44.363Z,20.1
2023-03-13T19:25:43.647Z,15.5
2023-03-13T19:30:42.913Z,13.6
2023-03-13T19:35:42.303Z,26.2
2023-03-13T19:40:41.516Z,15.3
2023-03-13T19:45:40.835Z,9.8
2023-03-13T19:50:40.116Z,10.8
2023-03-13T19:55:39.348Z,9.8
2023-03-13T20:00:38.675Z,12
2023-03-13T20:05:37.887Z,7.3
2023-03-13T20:10:37.123Z,6.9
2023-03-13T20:15:36.472Z,8.3
2023-03-13T20:20:35.736Z,6.1
2023-03-13T20:25:35.021Z,9
2023-03-13T20:30:34.239Z,8.7
2023-03-13T20:35:33.582Z,5.5
2023-03-13T20:40:32.805Z,5.8
2023-03-13T20:45:32.039Z,5.3
2023-03-13T20:50:31.249Z,4.8
2023-03-13T20:55:30.523Z,5.7
2023-03-13T21:00:29.772Z,4.2
2023-03-13T21:05:29.021Z,3.5
2023-03-13T21:10:28.253Z,4
2023-03-13T21:15:27.523Z,4.7
2023-03-13T21:20:26.765Z,4.1
2023-03-13T21:25:25.996Z,4.3
2023-03-13T21:30:25.204Z,5.5
2023-03-13T21:35:24.469Z,4
2023-03-13T21:40:23.717Z,3.7
2023-03-13T21:45:22.974Z,4.1
2023-03-13T21:50:22.241Z,5.2
2023-03-13T21:55:21.445Z,4.1
2023-03-13T22:00:20.658Z,3.8
2023-03-13T22:05:19.930Z,3.9
2023-03-13T22:10:19.236Z,3.8
2023-03-13T22:15:18.424Z,4
2023-03-13T22:20:17.665Z,4.2
2023-03-13T22:25:16.929Z,4
2023-03-13T22:30:16.180Z,4.5
2023-03-13T22:35:15.445Z,3.6
2023-03-13T22:40:14.622Z,3.8
2023-03-13T22:45:13.901Z,4
2023-03-13T22:50:13.145Z,4.9
2023-03-13T22:55:12.372Z,4.3
2023-03-13T23:00:11.633Z,4.1
2023-03-13T23:05:10.848Z,3.8
2023-03-13T23:10:10.114Z,4.4
2023-03-13T23:15:09.320Z,3.9
2023-03-13T23:20:08.562Z,3.6
2023-03-13T23:25:07.796Z,3.6
2023-03-13T23:30:07.068Z,4.8
2023-03-13T23:35:06.279Z,3.7
2023-03-13T23:40:05.526Z,3.5
2023-03-13T23:45:04.747Z,3.4
2023-03-13T23:50:03.943Z,3.5
2023-03-13T23:55:03.215Z,4.8
